sensor_id;sensor_type;location;lat;lon;timestamp;P1;durP1;ratioP1;P2;durP2;ratioP2
79088;SDS011;68489;50.286;9.452;2024-02-16T00:00:00;5.35;;;0.63;;
79088;SDS011;68489;50.286;9.452;2024-02-16T00:02:26;2.35;;;0.30;;
79088;SDS011;68489;50.286;9.452;2024-02-16T00:04:51;2.38;;;0.20;;
79088;SDS011;68489;50.286;9.452;2024-02-16T00:07:17;3.38;;;0.50;;
79088;SDS011;68489;50.286;9.452;2024-02-16T00:09:42;4.03;;;0.50;;
79088;SDS011;68489;50.286;9.452;2024-02-16T00:12:07;2.83;;;0.37;;
79088;SDS011;68489;50.286;9.452;2024-02-16T00:14:33;4.45;;;0.30;;
79088;SDS011;68489;50.286;9.452;2024-02-16T00:16:58;3.33;;;0.43;;
79088;SDS011;68489;50.286;9.452;2024-02-16T00:19:24;4.03;;;0.47;;
79088;SDS011;68489;50.286;9.452;2024-02-16T00:21:50;3.42;;;0.40;;
79088;SDS011;68489;50.286;9.452;2024-02-16T00:24:16;4.90;;;0.65;;
79088;SDS011;68489;50.286;9.452;2024-02-16T00:26:41;4.28;;;0.40;;
79088;SDS011;68489;50.286;9.452;2024-02-16T00:29:08;2.72;;;0.25;;
79088;SDS011;68489;50.286;9.452;2024-02-16T00:31:33;3.15;;;0.40;;
79088;SDS011;68489;50.286;9.452;2024-02-16T00:33:59;3.78;;;0.40;;
79088;SDS011;68489;50.286;9.452;2024-02-16T00:36:26;5.88;;;0.73;;
79088;SDS011;68489;50.286;9.452;2024-02-16T00:38:51;3.60;;;0.55;;
79088;SDS011;68489;50.286;9.452;2024-02-16T00:41:20;3.83;;;0.30;;
79088;SDS011;68489;50.286;9.452;2024-02-16T00:43:46;3.92;;;0.45;;
79088;SDS011;68489;50.286;9.452;2024-02-16T00:46:12;3.00;;;0.30;;
79088;SDS011;68489;50.286;9.452;2024-02-16T00:48:37;3.97;;;0.60;;
79088;SDS011;68489;50.286;9.452;2024-02-16T00:51:02;5.70;;;0.50;;
79088;SDS011;68489;50.286;9.452;2024-02-16T00:53:28;3.40;;;0.90;;
79088;SDS011;68489;50.286;9.452;2024-02-16T00:55:53;4.07;;;0.40;;
79088;SDS011;68489;50.286;9.452;2024-02-16T00:58:19;2.87;;;0.40;;
79088;SDS011;68489;50.286;9.452;2024-02-16T01:00:44;2.85;;;0.30;;
79088;SDS011;68489;50.286;9.452;2024-02-16T01:03:10;3.45;;;0.40;;
79088;SDS011;68489;50.286;9.452;2024-02-16T01:05:37;3.22;;;0.40;;
79088;SDS011;68489;50.286;9.452;2024-02-16T01:08:03;3.58;;;0.50;;
79088;SDS011;68489;50.286;9.452;2024-02-16T01:10:29;4.15;;;0.30;;
79088;SDS011;68489;50.286;9.452;2024-02-16T01:12:54;2.27;;;0.20;;
79088;SDS011;68489;50.286;9.452;2024-02-16T01:15:21;5.03;;;0.40;;
79088;SDS011;68489;50.286;9.452;2024-02-16T01:17:46;4.20;;;0.30;;
79088;SDS011;68489;50.286;9.452;2024-02-16T01:20:11;2.78;;;0.38;;
79088;SDS011;68489;50.286;9.452;2024-02-16T01:22:37;5.53;;;0.70;;
79088;SDS011;68489;50.286;9.452;2024-02-16T01:25:03;6.10;;;0.35;;
79088;SDS011;68489;50.286;9.452;2024-02-16T01:27:29;2.80;;;0.22;;
79088;SDS011;68489;50.286;9.452;2024-02-16T01:29:54;6.73;;;0.77;;
79088;SDS011;68489;50.286;9.452;2024-02-16T01:32:20;3.67;;;0.47;;
79088;SDS011;68489;50.286;9.452;2024-02-16T01:34:45;2.67;;;0.40;;
79088;SDS011;68489;50.286;9.452;2024-02-16T01:37:13;3.83;;;0.55;;
79088;SDS011;68489;50.286;9.452;2024-02-16T01:39:39;5.50;;;0.43;;
79088;SDS011;68489;50.286;9.452;2024-02-16T01:42:04;3.13;;;0.50;;
79088;SDS011;68489;50.286;9.452;2024-02-16T01:44:29;3.33;;;0.30;;
79088;SDS011;68489;50.286;9.452;2024-02-16T01:46:55;3.97;;;0.32;;
79088;SDS011;68489;50.286;9.452;2024-02-16T01:49:20;3.00;;;0.30;;
79088;SDS011;68489;50.286;9.452;2024-02-16T01:51:46;2.63;;;0.30;;
79088;SDS011;68489;50.286;9.452;2024-02-16T01:54:12;3.78;;;0.30;;
79088;SDS011;68489;50.286;9.452;2024-02-16T01:56:37;2.70;;;0.30;;
79088;SDS011;68489;50.286;9.452;2024-02-16T01:59:03;7.78;;;0.68;;
79088;SDS011;68489;50.286;9.452;2024-02-16T02:01:29;3.85;;;0.40;;
79088;SDS011;68489;50.286;9.452;2024-02-16T02:03:55;2.78;;;0.35;;
79088;SDS011;68489;50.286;9.452;2024-02-16T02:06:21;4.40;;;0.50;;
79088;SDS011;68489;50.286;9.452;2024-02-16T02:08:46;3.35;;;0.70;;
79088;SDS011;68489;50.286;9.452;2024-02-16T02:11:12;3.42;;;0.35;;
79088;SDS011;68489;50.286;9.452;2024-02-16T02:13:37;3.55;;;0.30;;
79088;SDS011;68489;50.286;9.452;2024-02-16T02:16:03;4.60;;;0.40;;
79088;SDS011;68489;50.286;9.452;2024-02-16T02:18:31;4.20;;;0.52;;
79088;SDS011;68489;50.286;9.452;2024-02-16T02:20:56;3.20;;;0.30;;
79088;SDS011;68489;50.286;9.452;2024-02-16T02:23:21;3.17;;;0.50;;
79088;SDS011;68489;50.286;9.452;2024-02-16T02:25:47;4.53;;;0.38;;
79088;SDS011;68489;50.286;9.452;2024-02-16T02:28:14;3.95;;;0.50;;
79088;SDS011;68489;50.286;9.452;2024-02-16T02:30:40;3.63;;;0.30;;
79088;SDS011;68489;50.286;9.452;2024-02-16T02:33:06;3.58;;;0.60;;
79088;SDS011;68489;50.286;9.452;2024-02-16T02:35:32;2.88;;;0.40;;
79088;SDS011;68489;50.286;9.452;2024-02-16T02:37:57;4.70;;;0.60;;
79088;SDS011;68489;50.286;9.452;2024-02-16T02:40:22;6.63;;;0.40;;
79088;SDS011;68489;50.286;9.452;2024-02-16T02:42:48;3.70;;;0.47;;
79088;SDS011;68489;50.286;9.452;2024-02-16T02:45:13;4.38;;;0.60;;
79088;SDS011;68489;50.286;9.452;2024-02-16T02:47:38;3.17;;;0.50;;
79088;SDS011;68489;50.286;9.452;2024-02-16T02:50:04;4.47;;;0.60;;
79088;SDS011;68489;50.286;9.452;2024-02-16T02:52:30;3.85;;;0.52;;
79088;SDS011;68489;50.286;9.452;2024-02-16T02:54:55;3.83;;;0.87;;
79088;SDS011;68489;50.286;9.452;2024-02-16T02:57:20;3.83;;;1.02;;
79088;SDS011;68489;50.286;9.452;2024-02-16T02:59:46;4.13;;;0.60;;
79088;SDS011;68489;50.286;9.452;2024-02-16T03:02:11;6.13;;;0.57;;
79088;SDS011;68489;50.286;9.452;2024-02-16T03:04:36;3.13;;;0.40;;
79088;SDS011;68489;50.286;9.452;2024-02-16T03:07:02;3.90;;;0.43;;
79088;SDS011;68489;50.286;9.452;2024-02-16T03:09:27;3.08;;;0.40;;
79088;SDS011;68489;50.286;9.452;2024-02-16T03:11:53;5.38;;;0.93;;
79088;SDS011;68489;50.286;9.452;2024-02-16T03:14:18;3.93;;;0.50;;
79088;SDS011;68489;50.286;9.452;2024-02-16T03:16:44;3.35;;;0.30;;
79088;SDS011;68489;50.286;9.452;2024-02-16T03:19:09;4.57;;;0.60;;
79088;SDS011;68489;50.286;9.452;2024-02-16T03:21:34;4.75;;;0.55;;
79088;SDS011;68489;50.286;9.452;2024-02-16T03:24:01;4.10;;;0.40;;
79088;SDS011;68489;50.286;9.452;2024-02-16T03:26:27;3.38;;;0.50;;
79088;SDS011;68489;50.286;9.452;2024-02-16T03:28:52;4.80;;;0.83;;
79088;SDS011;68489;50.286;9.452;2024-02-16T03:31:18;4.35;;;0.50;;
79088;SDS011;68489;50.286;9.452;2024-02-16T03:33:44;6.45;;;0.50;;
79088;SDS011;68489;50.286;9.452;2024-02-16T03:36:09;4.55;;;0.50;;
79088;SDS011;68489;50.286;9.452;2024-02-16T03:38:37;5.03;;;0.63;;
79088;SDS011;68489;50.286;9.452;2024-02-16T03:41:03;4.65;;;0.68;;
79088;SDS011;68489;50.286;9.452;2024-02-16T03:43:29;4.35;;;0.55;;
79088;SDS011;68489;50.286;9.452;2024-02-16T03:45:54;3.20;;;0.43;;
79088;SDS011;68489;50.286;9.452;2024-02-16T03:48:20;4.40;;;1.03;;
79088;SDS011;68489;50.286;9.452;2024-02-16T03:50:45;3.65;;;0.65;;
79088;SDS011;68489;50.286;9.452;2024-02-16T03:53:11;4.32;;;0.50;;
79088;SDS011;68489;50.286;9.452;2024-02-16T03:55:36;5.17;;;1.00;;
79088;SDS011;68489;50.286;9.452;2024-02-16T03:58:03;3.10;;;0.47;;
79088;SDS011;68489;50.286;9.452;2024-02-16T04:00:28;3.38;;;0.63;;
79088;SDS011;68489;50.286;9.452;2024-02-16T04:02:54;3.78;;;0.30;;
79088;SDS011;68489;50.286;9.452;2024-02-16T04:05:19;3.43;;;0.30;;
79088;SDS011;68489;50.286;9.452;2024-02-16T04:07:44;3.27;;;0.47;;
79088;SDS011;68489;50.286;9.452;2024-02-16T04:10:10;3.00;;;0.40;;
79088;SDS011;68489;50.286;9.452;2024-02-16T04:12:35;3.13;;;0.30;;
79088;SDS011;68489;50.286;9.452;2024-02-16T04:15:01;3.67;;;0.50;;
79088;SDS011;68489;50.286;9.452;2024-02-16T04:17:27;2.45;;;0.30;;
79088;SDS011;68489;50.286;9.452;2024-02-16T04:19:52;13.93;;;3.85;;
79088;SDS011;68489;50.286;9.452;2024-02-16T04:22:17;13.23;;;3.83;;
79088;SDS011;68489;50.286;9.452;2024-02-16T04:24:43;6.67;;;1.17;;
79088;SDS011;68489;50.286;9.452;2024-02-16T04:27:08;3.40;;;0.43;;
79088;SDS011;68489;50.286;9.452;2024-02-16T04:29:33;3.27;;;0.47;;
79088;SDS011;68489;50.286;9.452;2024-02-16T04:31:58;4.37;;;0.30;;
79088;SDS011;68489;50.286;9.452;2024-02-16T04:34:24;2.28;;;0.43;;
79088;SDS011;68489;50.286;9.452;2024-02-16T04:47:10;5.00;;;0.98;;
79088;SDS011;68489;50.286;9.452;2024-02-16T04:49:35;3.22;;;0.50;;
79088;SDS011;68489;50.286;9.452;2024-02-16T04:52:01;2.85;;;0.30;;
79088;SDS011;68489;50.286;9.452;2024-02-16T04:54:27;5.05;;;0.47;;
79088;SDS011;68489;50.286;9.452;2024-02-16T04:56:52;4.87;;;0.40;;
79088;SDS011;68489;50.286;9.452;2024-02-16T04:59:18;3.97;;;0.30;;
79088;SDS011;68489;50.286;9.452;2024-02-16T05:01:43;4.43;;;0.60;;
79088;SDS011;68489;50.286;9.452;2024-02-16T05:04:11;6.78;;;0.95;;
79088;SDS011;68489;50.286;9.452;2024-02-16T05:06:44;3.63;;;0.68;;
79088;SDS011;68489;50.286;9.452;2024-02-16T05:09:13;4.10;;;0.75;;
79088;SDS011;68489;50.286;9.452;2024-02-16T05:11:42;5.18;;;0.60;;
79088;SDS011;68489;50.286;9.452;2024-02-16T05:14:07;3.92;;;0.50;;
79088;SDS011;68489;50.286;9.452;2024-02-16T05:16:33;3.80;;;0.67;;
79088;SDS011;68489;50.286;9.452;2024-02-16T05:18:58;4.65;;;0.70;;
79088;SDS011;68489;50.286;9.452;2024-02-16T05:21:24;3.80;;;0.40;;
79088;SDS011;68489;50.286;9.452;2024-02-16T05:23:49;6.63;;;0.63;;
79088;SDS011;68489;50.286;9.452;2024-02-16T05:26:14;4.70;;;0.77;;
79088;SDS011;68489;50.286;9.452;2024-02-16T05:28:40;5.07;;;0.75;;
79088;SDS011;68489;50.286;9.452;2024-02-16T05:31:15;5.55;;;0.82;;
79088;SDS011;68489;50.286;9.452;2024-02-16T05:33:42;5.53;;;0.77;;
79088;SDS011;68489;50.286;9.452;2024-02-16T05:36:09;4.65;;;0.90;;
79088;SDS011;68489;50.286;9.452;2024-02-16T05:38:35;4.53;;;0.75;;
79088;SDS011;68489;50.286;9.452;2024-02-16T05:41:06;5.28;;;1.15;;
79088;SDS011;68489;50.286;9.452;2024-02-16T05:43:33;5.07;;;1.00;;
79088;SDS011;68489;50.286;9.452;2024-02-16T05:45:58;5.72;;;1.20;;
79088;SDS011;68489;50.286;9.452;2024-02-16T05:48:24;4.82;;;0.93;;
79088;SDS011;68489;50.286;9.452;2024-02-16T05:50:51;8.35;;;2.20;;
79088;SDS011;68489;50.286;9.452;2024-02-16T05:53:17;10.27;;;3.78;;
79088;SDS011;68489;50.286;9.452;2024-02-16T05:55:43;5.68;;;1.63;;
79088;SDS011;68489;50.286;9.452;2024-02-16T05:58:09;5.30;;;1.00;;
79088;SDS011;68489;50.286;9.452;2024-02-16T06:00:35;6.15;;;1.67;;
79088;SDS011;68489;50.286;9.452;2024-02-16T06:03:01;6.93;;;1.67;;
79088;SDS011;68489;50.286;9.452;2024-02-16T06:05:27;8.02;;;2.22;;
79088;SDS011;68489;50.286;9.452;2024-02-16T06:07:53;6.82;;;1.42;;
79088;SDS011;68489;50.286;9.452;2024-02-16T06:10:18;5.88;;;1.45;;
79088;SDS011;68489;50.286;9.452;2024-02-16T06:12:44;5.07;;;1.17;;
79088;SDS011;68489;50.286;9.452;2024-02-16T06:15:09;8.80;;;1.08;;
79088;SDS011;68489;50.286;9.452;2024-02-16T06:17:35;5.47;;;1.05;;
79088;SDS011;68489;50.286;9.452;2024-02-16T06:20:04;6.90;;;1.30;;
79088;SDS011;68489;50.286;9.452;2024-02-16T06:22:30;6.95;;;2.03;;
79088;SDS011;68489;50.286;9.452;2024-02-16T06:24:57;6.97;;;1.30;;
79088;SDS011;68489;50.286;9.452;2024-02-16T06:27:22;6.22;;;1.00;;
79088;SDS011;68489;50.286;9.452;2024-02-16T06:29:48;5.00;;;1.80;;
79088;SDS011;68489;50.286;9.452;2024-02-16T06:32:14;5.45;;;1.13;;
79088;SDS011;68489;50.286;9.452;2024-02-16T06:34:42;5.30;;;1.33;;
79088;SDS011;68489;50.286;9.452;2024-02-16T06:37:07;3.53;;;0.70;;
79088;SDS011;68489;50.286;9.452;2024-02-16T06:39:33;5.47;;;1.17;;
79088;SDS011;68489;50.286;9.452;2024-02-16T06:41:59;5.85;;;1.02;;
79088;SDS011;68489;50.286;9.452;2024-02-16T06:44:25;6.88;;;1.20;;
79088;SDS011;68489;50.286;9.452;2024-02-16T06:46:50;6.55;;;1.00;;
79088;SDS011;68489;50.286;9.452;2024-02-16T06:49:16;5.03;;;1.30;;
79088;SDS011;68489;50.286;9.452;2024-02-16T06:51:41;4.32;;;0.85;;
79088;SDS011;68489;50.286;9.452;2024-02-16T06:54:07;4.90;;;1.35;;
79088;SDS011;68489;50.286;9.452;2024-02-16T06:56:32;7.40;;;1.05;;
79088;SDS011;68489;50.286;9.452;2024-02-16T06:58:58;5.25;;;1.08;;
79088;SDS011;68489;50.286;9.452;2024-02-16T07:01:24;5.50;;;1.27;;
79088;SDS011;68489;50.286;9.452;2024-02-16T07:03:51;6.45;;;1.38;;
79088;SDS011;68489;50.286;9.452;2024-02-16T07:06:16;5.85;;;0.80;;
79088;SDS011;68489;50.286;9.452;2024-02-16T07:08:42;5.27;;;1.00;;
79088;SDS011;68489;50.286;9.452;2024-02-16T07:11:09;6.70;;;1.75;;
79088;SDS011;68489;50.286;9.452;2024-02-16T07:13:38;5.57;;;1.83;;
79088;SDS011;68489;50.286;9.452;2024-02-16T07:16:04;8.30;;;1.85;;
79088;SDS011;68489;50.286;9.452;2024-02-16T07:18:31;6.32;;;1.98;;
79088;SDS011;68489;50.286;9.452;2024-02-16T07:20:58;4.72;;;1.23;;
79088;SDS011;68489;50.286;9.452;2024-02-16T07:25:59;8.73;;;1.30;;
79088;SDS011;68489;50.286;9.452;2024-02-16T07:28:24;6.85;;;0.93;;
79088;SDS011;68489;50.286;9.452;2024-02-16T07:30:51;3.70;;;1.08;;
79088;SDS011;68489;50.286;9.452;2024-02-16T07:33:16;9.95;;;1.35;;
79088;SDS011;68489;50.286;9.452;2024-02-16T07:35:42;5.78;;;1.30;;
79088;SDS011;68489;50.286;9.452;2024-02-16T07:38:08;6.28;;;1.35;;
79088;SDS011;68489;50.286;9.452;2024-02-16T07:40:34;5.97;;;1.08;;
79088;SDS011;68489;50.286;9.452;2024-02-16T07:42:59;4.85;;;1.30;;
79088;SDS011;68489;50.286;9.452;2024-02-16T07:45:26;6.80;;;1.08;;
79088;SDS011;68489;50.286;9.452;2024-02-16T07:47:51;6.40;;;2.03;;
79088;SDS011;68489;50.286;9.452;2024-02-16T07:50:20;7.87;;;2.93;;
79088;SDS011;68489;50.286;9.452;2024-02-16T07:52:48;6.38;;;1.65;;
79088;SDS011;68489;50.286;9.452;2024-02-16T07:55:15;5.60;;;1.20;;
79088;SDS011;68489;50.286;9.452;2024-02-16T07:57:43;6.05;;;1.17;;
79088;SDS011;68489;50.286;9.452;2024-02-16T08:00:08;5.88;;;1.10;;
79088;SDS011;68489;50.286;9.452;2024-02-16T08:02:35;3.88;;;0.80;;
79088;SDS011;68489;50.286;9.452;2024-02-16T08:05:01;7.13;;;0.93;;
79088;SDS011;68489;50.286;9.452;2024-02-16T08:07:27;4.07;;;0.63;;
79088;SDS011;68489;50.286;9.452;2024-02-16T08:09:52;4.15;;;0.82;;
79088;SDS011;68489;50.286;9.452;2024-02-16T08:12:17;4.32;;;0.95;;
79088;SDS011;68489;50.286;9.452;2024-02-16T08:14:43;4.38;;;0.60;;
79088;SDS011;68489;50.286;9.452;2024-02-16T08:17:09;3.70;;;0.77;;
79088;SDS011;68489;50.286;9.452;2024-02-16T08:19:36;4.03;;;0.80;;
79088;SDS011;68489;50.286;9.452;2024-02-16T08:22:03;3.80;;;0.50;;
79088;SDS011;68489;50.286;9.452;2024-02-16T08:24:31;5.20;;;0.68;;
79088;SDS011;68489;50.286;9.452;2024-02-16T08:27:00;4.95;;;0.30;;
79088;SDS011;68489;50.286;9.452;2024-02-16T08:29:26;3.20;;;0.50;;
79088;SDS011;68489;50.286;9.452;2024-02-16T08:31:52;7.10;;;0.63;;
79088;SDS011;68489;50.286;9.452;2024-02-16T08:34:17;3.63;;;0.60;;
79088;SDS011;68489;50.286;9.452;2024-02-16T08:36:49;4.73;;;0.67;;
79088;SDS011;68489;50.286;9.452;2024-02-16T08:39:15;3.33;;;0.60;;
79088;SDS011;68489;50.286;9.452;2024-02-16T08:41:41;3.30;;;0.50;;
79088;SDS011;68489;50.286;9.452;2024-02-16T08:44:07;3.60;;;0.70;;
79088;SDS011;68489;50.286;9.452;2024-02-16T08:46:35;2.92;;;0.38;;
79088;SDS011;68489;50.286;9.452;2024-02-16T08:49:01;4.18;;;0.57;;
79088;SDS011;68489;50.286;9.452;2024-02-16T08:51:27;9.20;;;0.82;;
79088;SDS011;68489;50.286;9.452;2024-02-16T08:53:53;3.15;;;0.57;;
79088;SDS011;68489;50.286;9.452;2024-02-16T08:56:18;2.97;;;0.40;;
79088;SDS011;68489;50.286;9.452;2024-02-16T08:58:44;2.60;;;0.40;;
79088;SDS011;68489;50.286;9.452;2024-02-16T09:01:09;6.53;;;0.47;;
79088;SDS011;68489;50.286;9.452;2024-02-16T09:03:34;2.80;;;0.40;;
79088;SDS011;68489;50.286;9.452;2024-02-16T09:06:03;2.95;;;0.60;;
79088;SDS011;68489;50.286;9.452;2024-02-16T09:08:29;3.88;;;0.60;;
79088;SDS011;68489;50.286;9.452;2024-02-16T09:10:58;5.68;;;0.65;;
79088;SDS011;68489;50.286;9.452;2024-02-16T09:13:24;4.28;;;0.50;;
79088;SDS011;68489;50.286;9.452;2024-02-16T09:15:49;4.82;;;0.60;;
79088;SDS011;68489;50.286;9.452;2024-02-16T09:18:16;4.07;;;0.60;;
79088;SDS011;68489;50.286;9.452;2024-02-16T09:20:41;5.32;;;0.50;;
79088;SDS011;68489;50.286;9.452;2024-02-16T09:23:07;3.60;;;0.50;;
79088;SDS011;68489;50.286;9.452;2024-02-16T09:25:33;2.50;;;0.55;;
79088;SDS011;68489;50.286;9.452;2024-02-16T09:27:59;3.45;;;0.43;;
79088;SDS011;68489;50.286;9.452;2024-02-16T09:30:24;4.40;;;0.43;;
79088;SDS011;68489;50.286;9.452;2024-02-16T09:32:50;3.27;;;0.57;;
79088;SDS011;68489;50.286;9.452;2024-02-16T09:35:15;4.53;;;0.30;;
79088;SDS011;68489;50.286;9.452;2024-02-16T09:37:41;3.80;;;0.50;;
79088;SDS011;68489;50.286;9.452;2024-02-16T09:40:07;5.78;;;0.52;;
79088;SDS011;68489;50.286;9.452;2024-02-16T09:42:36;3.17;;;0.63;;
79088;SDS011;68489;50.286;9.452;2024-02-16T09:45:03;2.90;;;0.35;;
79088;SDS011;68489;50.286;9.452;2024-02-16T09:47:30;3.28;;;0.43;;
79088;SDS011;68489;50.286;9.452;2024-02-16T09:49:57;2.83;;;0.30;;
79088;SDS011;68489;50.286;9.452;2024-02-16T09:52:23;2.85;;;0.50;;
79088;SDS011;68489;50.286;9.452;2024-02-16T09:54:49;2.90;;;0.35;;
79088;SDS011;68489;50.286;9.452;2024-02-16T09:57:16;2.47;;;0.30;;
79088;SDS011;68489;50.286;9.452;2024-02-16T09:59:42;3.08;;;0.38;;
79088;SDS011;68489;50.286;9.452;2024-02-16T10:02:08;8.30;;;0.40;;
79088;SDS011;68489;50.286;9.452;2024-02-16T10:04:34;3.90;;;0.30;;
79088;SDS011;68489;50.286;9.452;2024-02-16T10:06:59;2.53;;;0.30;;
79088;SDS011;68489;50.286;9.452;2024-02-16T10:09:25;1.90;;;0.25;;
79088;SDS011;68489;50.286;9.452;2024-02-16T10:11:54;3.33;;;0.50;;
79088;SDS011;68489;50.286;9.452;2024-02-16T10:14:19;4.23;;;0.43;;
79088;SDS011;68489;50.286;9.452;2024-02-16T10:16:45;2.25;;;0.45;;
79088;SDS011;68489;50.286;9.452;2024-02-16T10:19:12;4.05;;;0.68;;
79088;SDS011;68489;50.286;9.452;2024-02-16T10:21:37;3.38;;;0.30;;
79088;SDS011;68489;50.286;9.452;2024-02-16T10:24:07;2.17;;;0.32;;
79088;SDS011;68489;50.286;9.452;2024-02-16T10:26:37;3.05;;;0.30;;
79088;SDS011;68489;50.286;9.452;2024-02-16T10:29:03;1.88;;;0.20;;
79088;SDS011;68489;50.286;9.452;2024-02-16T10:31:30;2.92;;;0.38;;
79088;SDS011;68489;50.286;9.452;2024-02-16T10:33:57;5.03;;;0.32;;
79088;SDS011;68489;50.286;9.452;2024-02-16T10:36:37;4.13;;;1.50;;
79088;SDS011;68489;50.286;9.452;2024-02-16T10:39:05;3.30;;;0.60;;
79088;SDS011;68489;50.286;9.452;2024-02-16T10:41:35;2.40;;;0.40;;
79088;SDS011;68489;50.286;9.452;2024-02-16T10:44:03;3.63;;;0.40;;
79088;SDS011;68489;50.286;9.452;2024-02-16T10:46:29;3.40;;;0.50;;
79088;SDS011;68489;50.286;9.452;2024-02-16T10:48:55;2.70;;;0.60;;
79088;SDS011;68489;50.286;9.452;2024-02-16T10:51:22;4.27;;;0.40;;
79088;SDS011;68489;50.286;9.452;2024-02-16T10:53:51;4.10;;;0.50;;
79088;SDS011;68489;50.286;9.452;2024-02-16T10:56:26;3.70;;;0.30;;
79088;SDS011;68489;50.286;9.452;2024-02-16T10:59:04;2.80;;;0.32;;
79088;SDS011;68489;50.286;9.452;2024-02-16T11:01:40;3.90;;;0.60;;
79088;SDS011;68489;50.286;9.452;2024-02-16T11:04:16;2.90;;;0.60;;
79088;SDS011;68489;50.286;9.452;2024-02-16T11:06:48;2.83;;;0.43;;
79088;SDS011;68489;50.286;9.452;2024-02-16T11:09:26;2.97;;;0.50;;
79088;SDS011;68489;50.286;9.452;2024-02-16T11:11:53;3.67;;;0.63;;
79088;SDS011;68489;50.286;9.452;2024-02-16T11:14:40;3.10;;;0.45;;
79088;SDS011;68489;50.286;9.452;2024-02-16T11:17:19;2.63;;;0.40;;
79088;SDS011;68489;50.286;9.452;2024-02-16T11:19:46;3.00;;;0.20;;
79088;SDS011;68489;50.286;9.452;2024-02-16T11:22:16;3.67;;;0.50;;
79088;SDS011;68489;50.286;9.452;2024-02-16T11:24:49;2.88;;;0.52;;
79088;SDS011;68489;50.286;9.452;2024-02-16T11:27:17;2.92;;;0.73;;
79088;SDS011;68489;50.286;9.452;2024-02-16T11:29:47;3.03;;;0.40;;
79088;SDS011;68489;50.286;9.452;2024-02-16T11:32:14;2.60;;;0.40;;
79088;SDS011;68489;50.286;9.452;2024-02-16T11:34:39;3.25;;;0.85;;
79088;SDS011;68489;50.286;9.452;2024-02-16T11:37:05;2.70;;;0.50;;
79088;SDS011;68489;50.286;9.452;2024-02-16T11:39:31;2.15;;;0.20;;
79088;SDS011;68489;50.286;9.452;2024-02-16T11:42:04;3.15;;;0.50;;
79088;SDS011;68489;50.286;9.452;2024-02-16T11:44:31;3.38;;;0.70;;
79088;SDS011;68489;50.286;9.452;2024-02-16T11:46:58;2.67;;;0.50;;
79088;SDS011;68489;50.286;9.452;2024-02-16T11:49:23;4.03;;;0.50;;
79088;SDS011;68489;50.286;9.452;2024-02-16T11:51:49;4.20;;;0.63;;
79088;SDS011;68489;50.286;9.452;2024-02-16T11:54:15;2.90;;;0.52;;
79088;SDS011;68489;50.286;9.452;2024-02-16T11:56:42;4.15;;;0.47;;
79088;SDS011;68489;50.286;9.452;2024-02-16T11:59:11;3.58;;;0.30;;
79088;SDS011;68489;50.286;9.452;2024-02-16T12:01:47;2.97;;;0.30;;
79088;SDS011;68489;50.286;9.452;2024-02-16T12:04:22;4.00;;;0.50;;
79088;SDS011;68489;50.286;9.452;2024-02-16T12:06:59;2.88;;;0.40;;
79088;SDS011;68489;50.286;9.452;2024-02-16T12:09:27;2.33;;;0.30;;
79088;SDS011;68489;50.286;9.452;2024-02-16T12:11:53;2.88;;;0.52;;
79088;SDS011;68489;50.286;9.452;2024-02-16T12:14:20;3.45;;;0.40;;
79088;SDS011;68489;50.286;9.452;2024-02-16T12:16:47;3.20;;;0.40;;
79088;SDS011;68489;50.286;9.452;2024-02-16T12:19:13;5.40;;;0.47;;
79088;SDS011;68489;50.286;9.452;2024-02-16T12:21:39;2.92;;;0.38;;
79088;SDS011;68489;50.286;9.452;2024-02-16T12:24:05;2.95;;;0.50;;
79088;SDS011;68489;50.286;9.452;2024-02-16T12:26:30;3.70;;;0.20;;
79088;SDS011;68489;50.286;9.452;2024-02-16T12:28:56;3.22;;;0.40;;
79088;SDS011;68489;50.286;9.452;2024-02-16T12:31:21;2.83;;;0.30;;
79088;SDS011;68489;50.286;9.452;2024-02-16T12:33:47;3.55;;;0.40;;
79088;SDS011;68489;50.286;9.452;2024-02-16T12:36:13;2.25;;;0.30;;
79088;SDS011;68489;50.286;9.452;2024-02-16T12:38:39;4.18;;;0.40;;
79088;SDS011;68489;50.286;9.452;2024-02-16T12:41:05;5.00;;;0.63;;
79088;SDS011;68489;50.286;9.452;2024-02-16T12:43:30;3.03;;;0.50;;
79088;SDS011;68489;50.286;9.452;2024-02-16T12:45:56;4.73;;;0.40;;
79088;SDS011;68489;50.286;9.452;2024-02-16T12:48:21;3.65;;;0.38;;
79088;SDS011;68489;50.286;9.452;2024-02-16T12:50:46;4.20;;;0.25;;
79088;SDS011;68489;50.286;9.452;2024-02-16T12:53:12;4.38;;;0.47;;
79088;SDS011;68489;50.286;9.452;2024-02-16T12:55:37;4.30;;;0.30;;
79088;SDS011;68489;50.286;9.452;2024-02-16T12:58:03;5.20;;;0.65;;
79088;SDS011;68489;50.286;9.452;2024-02-16T13:00:28;3.25;;;0.40;;
79088;SDS011;68489;50.286;9.452;2024-02-16T13:02:54;4.30;;;0.35;;
79088;SDS011;68489;50.286;9.452;2024-02-16T13:26:10;4.90;;;0.40;;
79088;SDS011;68489;50.286;9.452;2024-02-16T13:28:35;5.03;;;0.30;;
79088;SDS011;68489;50.286;9.452;2024-02-16T13:31:00;3.80;;;0.50;;
79088;SDS011;68489;50.286;9.452;2024-02-16T13:33:26;3.83;;;0.32;;
79088;SDS011;68489;50.286;9.452;2024-02-16T13:35:51;2.70;;;0.40;;
79088;SDS011;68489;50.286;9.452;2024-02-16T13:38:16;2.60;;;0.40;;
79088;SDS011;68489;50.286;9.452;2024-02-16T13:40:42;2.85;;;0.35;;
79088;SDS011;68489;50.286;9.452;2024-02-16T13:43:08;3.65;;;0.43;;
79088;SDS011;68489;50.286;9.452;2024-02-16T13:45:49;2.67;;;0.32;;
79088;SDS011;68489;50.286;9.452;2024-02-16T13:48:16;4.28;;;0.45;;
79088;SDS011;68489;50.286;9.452;2024-02-16T13:50:43;3.25;;;0.50;;
79088;SDS011;68489;50.286;9.452;2024-02-16T13:53:13;3.92;;;0.30;;
79088;SDS011;68489;50.286;9.452;2024-02-16T13:55:39;4.70;;;0.60;;
79088;SDS011;68489;50.286;9.452;2024-02-16T13:58:04;4.40;;;0.57;;
79088;SDS011;68489;50.286;9.452;2024-02-16T14:00:30;4.20;;;0.43;;
79088;SDS011;68489;50.286;9.452;2024-02-16T14:02:55;4.37;;;0.50;;
79088;SDS011;68489;50.286;9.452;2024-02-16T14:05:20;4.72;;;0.43;;
79088;SDS011;68489;50.286;9.452;2024-02-16T14:07:47;6.80;;;0.60;;
79088;SDS011;68489;50.286;9.452;2024-02-16T14:10:13;3.22;;;0.50;;
79088;SDS011;68489;50.286;9.452;2024-02-16T14:12:39;3.05;;;0.25;;
79088;SDS011;68489;50.286;9.452;2024-02-16T14:15:04;2.57;;;0.67;;
79088;SDS011;68489;50.286;9.452;2024-02-16T14:17:30;3.38;;;0.35;;
79088;SDS011;68489;50.286;9.452;2024-02-16T14:19:55;2.38;;;0.43;;
79088;SDS011;68489;50.286;9.452;2024-02-16T14:22:20;2.97;;;0.30;;
79088;SDS011;68489;50.286;9.452;2024-02-16T14:24:46;5.63;;;0.37;;
79088;SDS011;68489;50.286;9.452;2024-02-16T14:27:11;3.70;;;0.30;;
79088;SDS011;68489;50.286;9.452;2024-02-16T14:29:36;5.53;;;0.43;;
79088;SDS011;68489;50.286;9.452;2024-02-16T14:32:01;4.30;;;0.50;;
79088;SDS011;68489;50.286;9.452;2024-02-16T14:34:28;3.58;;;0.60;;
79088;SDS011;68489;50.286;9.452;2024-02-16T14:36:53;4.03;;;0.32;;
79088;SDS011;68489;50.286;9.452;2024-02-16T14:39:18;2.80;;;0.40;;
79088;SDS011;68489;50.286;9.452;2024-02-16T14:41:44;5.65;;;0.82;;
79088;SDS011;68489;50.286;9.452;2024-02-16T14:44:09;3.70;;;0.30;;
79088;SDS011;68489;50.286;9.452;2024-02-16T14:46:35;2.85;;;0.30;;
79088;SDS011;68489;50.286;9.452;2024-02-16T14:49:01;3.88;;;0.50;;
79088;SDS011;68489;50.286;9.452;2024-02-16T14:51:26;4.07;;;0.40;;
79088;SDS011;68489;50.286;9.452;2024-02-16T14:53:51;5.37;;;0.40;;
79088;SDS011;68489;50.286;9.452;2024-02-16T14:56:17;3.27;;;0.37;;
79088;SDS011;68489;50.286;9.452;2024-02-16T14:58:46;3.60;;;0.60;;
79088;SDS011;68489;50.286;9.452;2024-02-16T15:01:12;4.25;;;0.40;;
79088;SDS011;68489;50.286;9.452;2024-02-16T15:03:37;3.70;;;0.43;;
79088;SDS011;68489;50.286;9.452;2024-02-16T15:06:02;4.07;;;0.40;;
79088;SDS011;68489;50.286;9.452;2024-02-16T15:08:28;5.03;;;0.60;;
79088;SDS011;68489;50.286;9.452;2024-02-16T15:10:53;4.07;;;0.30;;
79088;SDS011;68489;50.286;9.452;2024-02-16T15:13:18;4.10;;;0.90;;
79088;SDS011;68489;50.286;9.452;2024-02-16T15:15:45;3.75;;;0.60;;